HE35 weather

Abu Suwayr Air Base
Abu Suwayr, Ismailia Governorate, Egypt

Public forecast

Using degrees Celsius for public forecast. Weather courtesy of forecast.io.

Closest aviation weather report (METAR) to Abu Suwayr Air Base

Closest report is Port Said Airport, 43.1 nm (79.8 km) N. Retrieved 2019/10/21 21:00 UTC (14 minutes ago):

HEPS 212100Z 06008KT 9999 FEW025 25/21 Q1013 NOSIG

Closest aviation forecast (TAF) to Abu Suwayr Air Base

Closest forecast is Port Said Airport, 43.1 nm (79.8 km) N. Retrieved 2019/10/21 18:00 UTC (3 hours ago):

TAF COR TAF HEPS 211750Z 2118/2224 03012KT 9999 FEW025 BKN030 TEMPO 2118/2124 4000TSRA BKN020CB